BFIBOEING FLD/KING COUNTY INTL
METARs for airports near BFI, sorted by distance:
N 0 nm 21' KBFI 160253Z 32006KT 10SM CLR 21/07 A3000
SE 4 nm 32' KRNT 160253Z 34007KT 10SM CLR 21/09 A3000
S 4 nm 432' KSEA 160253Z 34008KT 10SM SCT250 21/04 A3002
W 18 nm 444' KPWT 160256Z 05004KT 10SM CLR 21/08 A3002
SW 19 nm 294' KTIW 160253Z 04004KT 10SM CLR 19/08 A3001
N 22 nm 607' KPAE 160253Z 34004KT 10SM CLR 18/09 A3003
S 24 nm 322' KTCM 160258Z 35005KT 10SM CLR 21/07 A3000
S 25 nm 537' KPLU 160315Z 00000KT 10SM CLR 19/07 A3002
S 29 nm 301' KGRF 160258Z 36009KT 10SM CLR 22/06 A3000
N 38 nm 141' KAWO 160256Z 29007KT 10SM CLR 18/11 A3001
SW 38 nm 272' KSHN 160253Z 25006KT 10SM CLR 20/11 A2998
SW 41 nm 207' KOLM 160254Z 32005KT 10SM CLR 22/08 A3000
N 51 nm 47' KNUW 160256Z 26004KT 10SM SCT250 12/08 A3006
N 56 nm 145' KBVS 160315Z 00000KT 9SM CLR 16/09 A3002
NW 57 nm 13' KNOW 160315Z 29009KT 3SM BR OVC001 09/09 A3004
SW 58 nm 177' KCLS 160315Z 00000KT 10SM CLR 20/10 A3000
NW 59 nm 291' KCLM 160253Z 32004KT 10SM CLR 11/08 A3004
NW 66 nm 112' KFHR 160253Z 24003KT 10SM CLR 15/08 A3002
SW 74 nm 17' KHQM 160253Z 28008KT 10SM OVC008 10/08 A3006
N 74 nm 34' KORS 160315Z 16004KT 10SM CLR 17/11 A3000
N 76 nm 171' KBLI 160253Z 19004KT 10SM CLR 17/10 A3001
E 78 nm 1763' KELN 160253Z 31016G24KT 10SM CLR 23/04 A2992
NW 80 nm 64' CYYJ 160300Z 08004KT 030V110 30SM FEW250 16/08 A3000
E 85 nm 1248' KEAT 160255Z 30013KT 10SM CLR 27/02 A2987
S 88 nm 20' KKLS 160256Z 30005KT 10SM CLR 18/11 A3000
SE 92 nm 1098' KYKM 160253Z 03009KT 10SM CLR 28/00 A2988
W 94 nm 193' KUIL 160253Z 30006KT 10SM CLR 11/08 A3006
TAFs for airports near BFI, sorted by distance:
N 0 nm 21' KBFI KBFI 152320Z 1600/1624 30007KT P6SM FEW250
  FM160300 35006KT P6SM SKC
  FM160700 02004KT P6SM SKC
  FM161300 VRB04KT P6SM FEW013
  FM161800 30004KT P6SM SKC
S 4 nm 432' KSEA KSEA 160303Z 1603/1706 35006KT P6SM SCT250
  FM160700 02004KT P6SM SCT250
  FM161300 VRB04KT P6SM FEW010 SCT250
  FM161800 31004KT P6SM SKC
W 18 nm 444' KPWT TAF KPWT 152320Z 1600/1624 04007KT P6SM SKC
  FM160600 03004KT P6SM SKC
  FM161300 VRB04KT P6SM BKN010
  FM161800 04006KT P6SM SCT010
  FM161900 04007KT P6SM SKC
N 22 nm 607' KPAE KPAE 152320Z 1600/1624 35010KT P6SM FEW250
  FM160300 35004KT P6SM SKC
  FM161200 01004KT P6SM BKN007
  FM161800 32005KT P6SM SCT015
  FM161900 34007KT P6SM SKC
S 24 nm 322' KTCM TAF KTCM 152100Z 1521/1703 35012KT 9999 FEW200 QNH3005INS
  BECMG 1604/1605 01004KT 9999 SKC QNH3002INS
  BECMG 1611/1612 VRB04KT 9999 SCT015 QNH2998INS
  BECMG 1613/1614 22004KT 4800 BR BKN015 QNH2999INS
  BECMG 1616/1617 35009KT 9999 NSW SCT030 QNH3001INS TX25/1600Z TN06/1614Z
S 29 nm 301' KGRF TAF TAF KGRF 152100Z 1521/1703 30006KT 9999 FEW200 QNH3010INS
  BECMG 1603/1604 33008KT 9999 SKC QNH3001INS
  BECMG 1612/1613 28003KT 6000 BR SCT005 QNH3004INS
  TEMPO 1613/1616 3200 BR
  BECMG 1617/1618 30007KT 9999 NSW SKC QNH3004INS TX21/1521Z TN07/1613Z
SW 41 nm 207' KOLM KOLM 152320Z 1600/1624 36008KT P6SM SKC
  FM160500 VRB03KT P6SM SKC
  FM161100 20004KT P6SM OVC007
  FM161800 35005KT P6SM SKC
N 51 nm 47' KNUW TAF KNUW 1523/1623 27009KT 9999 FEW020 SCT250 QNH3005INS
  FM160100 22006KT 9999 FEW010 SCT250 QNH3001INS
  FM161100 22005KT 3200 BR BKN005 BKN250 QNH3000INS
  TEMPO 1611/1617 0800 FG VV002
  BECMG 1617/1618 25009KT 9999 FEW010 SCT050 BKN250 QNH2995INS
  FM162200 26012KT 9999 BKN050 BKN100 BKN250 QNH2993INS LAST NO
  AMDS AFT 1606 NEXT 1615 T09/1613Z T16/1622Z FS30020
NW 59 nm 291' KCLM KCLM 152320Z 1600/1624 33005KT P6SM SKC
  FM160200 30012KT P6SM SKC
  FM161000 30007KT 6SM BR OVC002
  FM161700 30007KT P6SM SCT020
  FM161800 28008KT P6SM SKC
SW 74 nm 17' KHQM KHQM 152320Z 1600/1624 26012KT P6SM FEW009 FEW250
  TEMPO 1600/1602 BKN010
  FM160200 26010KT P6SM OVC008
  FM160900 26007KT 4SM BR OVC006
  FM161800 24010KT P6SM BKN012
  FM162000 25015KT P6SM SCT020
N 76 nm 171' KBLI KBLI 152320Z 1600/1624 27005KT P6SM SKC
  FM160600 18009KT P6SM SKC
  FM161200 17005KT P6SM SKC
E 85 nm 1248' KEAT TAF KEAT 152320Z 1600/1624 VRB05KT P6SM SKC
  FM160600 30008KT P6SM SCT250
  FM161800 VRB05KT P6SM FEW250
SE 92 nm 1098' KYKM KYKM 152320Z 1600/1624 33008KT P6SM SKC
  FM160400 27005KT P6SM SKC
  FM161700 VRB05KT P6SM SKC

Shortcut to this page: http://wxbay.com.

Data may contain errors.